Time;durP1;ratioP1;P1;durP2;ratioP2;P2;SDS_P1;SDS_P2;PMS_P1;PMS_P2;Temp;Humidity;BMP_temperature;BMP_pressure;BME280_temperature;BME280_humidity;BME280_pressure;Samples;Min_cycle;Max_cycle;Signal;HPM_P1;HPM_P2
2021/04/14 00:00:56;;;;;;;8.77;7.80;;;11.50;57.70;;;;;;5040430;28;20390;-52
2021/04/14 00:03:31;;;;;;;8.85;7.47;;;11.40;57.60;;;;;;5053972;28;20476;-51
2021/04/14 00:05:57;;;;;;;8.20;7.47;;;11.40;58.50;;;;;;5041264;28;20052;-55
2021/04/14 00:08:23;;;;;;;8.48;7.65;;;11.30;58.20;;;;;;5056448;28;20106;-56
2021/04/14 00:10:49;;;;;;;7.90;7.20;;;11.30;58.10;;;;;;5052378;28;20414;-54
2021/04/14 00:13:19;;;;;;;8.48;7.78;;;11.40;58.50;;;;;;5057063;28;20036;-52
2021/04/14 00:15:50;;;;;;;8.82;7.90;;;11.30;58.30;;;;;;5048377;28;20048;-54
2021/04/14 00:18:17;;;;;;;8.43;7.72;;;11.40;58.50;;;;;;5036715;28;20049;-52
2021/04/14 00:20:44;;;;;;;10.48;7.97;;;11.20;58.70;;;;;;5048848;28;20125;-53
2021/04/14 00:23:10;;;;;;;9.18;8.38;;;11.10;58.90;;;;;;5048393;28;20403;-55
2021/04/14 00:25:42;;;;;;;9.48;8.57;;;11.20;59.30;;;;;;5051348;28;20037;-54
2021/04/14 00:28:07;;;;;;;8.88;8.18;;;10.90;60.30;;;;;;5067115;28;20045;-54
2021/04/14 00:30:33;;;;;;;8.80;8.00;;;11.10;59.70;;;;;;5064489;28;20461;-52
2021/04/14 00:32:58;;;;;;;8.15;7.35;;;11.10;59.10;;;;;;5046150;28;20036;-52
2021/04/14 00:35:26;;;;;;;8.43;7.63;;;11.10;59.00;;;;;;5066820;28;20036;-53
2021/04/14 00:37:53;;;;;;;8.20;7.28;;;11.10;59.40;;;;;;5063325;28;20044;-51
2021/04/14 00:40:29;;;;;;;8.05;7.30;;;11.00;59.50;;;;;;5055766;28;20040;-56
2021/04/14 00:42:56;;;;;;;8.65;7.75;;;11.00;59.50;;;;;;5029411;28;20060;-52
2021/04/14 00:45:22;;;;;;;8.13;7.43;;;11.00;59.40;;;;;;5060170;28;20508;-54
2021/04/14 00:47:48;;;;;;;8.73;7.82;;;10.90;59.50;;;;;;5048788;28;20029;-55
2021/04/14 00:50:16;;;;;;;8.60;7.50;;;11.00;59.30;;;;;;5042845;28;20035;-52
2021/04/14 00:52:42;;;;;;;7.80;7.10;;;11.00;59.30;;;;;;5046815;28;20547;-52
2021/04/14 00:55:17;;;;;;;8.00;6.68;;;11.00;59.20;;;;;;5055413;28;20045;-51
2021/04/14 00:57:42;;;;;;;;;;;11.00;59.20;;;;;;5037366;28;20166;-50
2021/04/14 01:00:26;;;;;;;7.00;6.30;;;10.80;60.10;;;;;;5064206;28;20016;-53
2021/04/14 01:02:52;;;;;;;7.43;6.65;;;10.90;59.40;;;;;;5023203;28;20049;-51
2021/04/14 01:05:19;;;;;;;7.55;6.82;;;10.90;59.20;;;;;;5046942;28;20037;-52
2021/04/14 01:07:46;;;;;;;8.35;6.65;;;10.90;59.10;;;;;;5042404;28;20048;-53
2021/04/14 01:10:13;;;;;;;7.97;7.25;;;10.80;59.20;;;;;;5055375;28;20041;-51
2021/04/14 01:12:38;;;;;;;7.27;6.63;;;10.90;59.10;;;;;;5043864;28;20071;-52
2021/04/14 01:15:11;;;;;;;8.00;7.13;;;10.90;59.10;;;;;;5045892;28;20462;-54
2021/04/14 01:17:36;;;;;;;7.45;6.75;;;10.90;59.30;;;;;;5051338;28;20045;-52
2021/04/14 01:20:04;;;;;;;7.45;6.78;;;10.80;59.60;;;;;;5062558;28;20168;-50
2021/04/14 01:22:29;;;;;;;8.32;7.63;;;10.80;59.60;;;;;;5057668;28;20124;-51
2021/04/14 01:24:55;;;;;;;7.32;6.72;;;10.80;59.80;;;;;;5032819;28;20194;-54
2021/04/14 01:27:20;;;;;;;6.95;6.35;;;10.80;59.40;;;;;;5054329;28;20125;-52
2021/04/14 01:29:46;;;;;;;7.82;7.13;;;10.80;59.20;;;;;;5035387;28;20245;-52
2021/04/14 01:32:12;;;;;;;7.82;7.10;;;10.70;59.10;;;;;;5062008;28;20061;-53
2021/04/14 01:34:37;;;;;;;7.35;6.68;;;10.70;59.50;;;;;;5058892;28;20036;-52
2021/04/14 01:37:03;;;;;;;7.45;6.75;;;10.60;59.70;;;;;;5062863;28;20041;-53
2021/04/14 01:39:28;;;;;;;8.82;7.55;;;10.60;59.80;;;;;;5062068;28;20040;-51
2021/04/14 01:41:54;;;;;;;8.10;7.13;;;10.60;59.80;;;;;;5053281;28;20077;-51
2021/04/14 01:44:19;;;;;;;8.38;7.45;;;10.60;59.90;;;;;;5046030;28;20041;-52
2021/04/14 01:46:45;;;;;;;7.60;6.82;;;10.70;60.10;;;;;;5049372;28;20048;-51
2021/04/14 01:49:12;;;;;;;7.15;6.45;;;10.60;59.70;;;;;;5054762;28;20040;-53
2021/04/14 01:51:37;;;;;;;7.07;6.47;;;10.70;60.00;;;;;;5059404;28;20041;-51
2021/04/14 01:54:04;;;;;;;7.00;6.32;;;10.60;59.60;;;;;;5051495;28;20068;-53
2021/04/14 01:56:30;;;;;;;7.87;7.00;;;10.60;59.40;;;;;;5046314;28;20032;-53
2021/04/14 01:58:55;;;;;;;7.03;6.43;;;10.60;59.60;;;;;;5044014;28;20037;-50
2021/04/14 02:01:21;;;;;;;7.40;6.70;;;10.50;59.30;;;;;;5060824;28;20547;-55
2021/04/14 02:03:47;;;;;;;7.77;7.03;;;10.40;59.80;;;;;;5067077;28;20481;-54
2021/04/14 02:06:16;;;;;;;7.80;7.03;;;10.50;59.60;;;;;;5059560;28;20119;-53
2021/04/14 02:08:42;;;;;;;8.33;7.27;;;10.50;59.60;;;;;;5059104;28;20040;-54
2021/04/14 02:11:11;;;;;;;7.33;6.70;;;10.50;59.70;;;;;;5063008;28;20052;-51
2021/04/14 02:13:39;;;;;;;7.00;6.37;;;10.50;59.70;;;;;;5062722;28;20040;-51
2021/04/14 02:16:07;;;;;;;7.93;7.13;;;10.50;59.70;;;;;;5050953;28;20481;-51
2021/04/14 02:18:32;;;;;;;7.17;6.47;;;10.40;60.10;;;;;;5049885;28;20041;-52
2021/04/14 02:21:00;;;;;;;7.43;6.73;;;10.50;59.70;;;;;;5046330;28;20051;-54
2021/04/14 02:23:28;;;;;;;7.83;7.03;;;10.50;59.70;;;;;;5054249;28;20024;-51
2021/04/14 02:25:59;;;;;;;7.37;6.53;;;10.40;59.60;;;;;;5045278;28;20124;-53
2021/04/14 02:28:25;;;;;;;7.40;6.73;;;10.50;59.80;;;;;;5058041;28;20050;-52
2021/04/14 02:30:51;;;;;;;6.90;6.30;;;10.40;59.90;;;;;;5044394;28;21281;-51
2021/04/14 02:33:18;;;;;;;7.10;6.00;;;10.50;59.50;;;;;;5066486;28;20088;-53
2021/04/14 02:35:43;;;;;;;6.50;5.50;;;10.40;59.60;;;;;;5054524;28;20406;-55
2021/04/14 02:38:10;;;;;;;8.20;6.13;;;10.30;59.20;;;;;;5063702;28;20044;-55
2021/04/14 02:40:36;;;;;;;7.50;6.80;;;10.20;59.70;;;;;;5058454;28;20182;-53
2021/04/14 02:43:03;;;;;;;6.30;5.70;;;10.40;59.50;;;;;;5053312;28;20549;-53
2021/04/14 02:45:31;;;;;;;6.67;5.93;;;10.40;59.10;;;;;;5063839;28;20048;-51
2021/04/14 02:47:57;;;;;;;6.23;5.07;;;10.30;59.30;;;;;;5052673;28;20036;-54
2021/04/14 02:50:23;;;;;;;6.00;5.40;;;10.40;59.10;;;;;;5044036;28;20041;-50
2021/04/14 02:52:49;;;;;;;7.30;5.77;;;10.20;59.10;;;;;;5049979;28;20051;-52
2021/04/14 02:55:16;;;;;;;6.07;5.50;;;10.40;59.20;;;;;;5048950;28;20045;-51
2021/04/14 02:57:42;;;;;;;5.73;5.23;;;10.40;59.00;;;;;;5041201;28;20041;-50
2021/04/14 03:00:10;;;;;;;7.23;5.83;;;10.40;58.40;;;;;;5049952;28;20048;-53
2021/04/14 03:02:36;;;;;;;8.70;5.67;;;10.30;58.40;;;;;;5054122;28;20419;-57
2021/04/14 03:05:04;;;;;;;6.93;5.43;;;10.20;58.50;;;;;;5045826;28;20045;-50
2021/04/14 03:07:29;;;;;;;6.50;5.63;;;10.20;58.90;;;;;;5040944;28;20132;-52
2021/04/14 03:09:55;;;;;;;6.33;5.47;;;10.30;59.00;;;;;;5049904;28;20115;-53
2021/04/14 03:12:20;;;;;;;6.47;5.77;;;10.30;59.00;;;;;;5041584;28;20471;-54
2021/04/14 03:14:46;;;;;;;6.97;5.60;;;10.30;58.50;;;;;;5037401;28;20051;-50
2021/04/14 03:17:12;;;;;;;5.80;5.20;;;10.30;58.40;;;;;;5054403;28;20045;-52
2021/04/14 03:19:37;;;;;;;7.03;5.43;;;10.20;58.40;;;;;;5054538;28;20052;-50
2021/04/14 03:22:04;;;;;;;8.47;6.13;;;10.20;58.40;;;;;;5045539;28;20123;-51
2021/04/14 03:24:30;;;;;;;6.57;5.97;;;10.30;58.70;;;;;;5061465;28;20028;-55
2021/04/14 03:26:55;;;;;;;5.60;5.10;;;10.20;58.40;;;;;;5042659;28;20036;-55
2021/04/14 03:29:21;;;;;;;8.03;6.50;;;10.10;58.70;;;;;;5042481;28;20448;-55
2021/04/14 03:31:47;;;;;;;7.50;6.20;;;10.10;58.60;;;;;;5047167;28;20450;-50
2021/04/14 03:34:12;;;;;;;6.93;6.13;;;10.10;58.80;;;;;;5049858;28;20029;-54
2021/04/14 03:36:38;;;;;;;6.90;6.20;;;10.20;58.30;;;;;;5060190;28;20051;-52
2021/04/14 03:39:05;;;;;;;7.20;6.10;;;10.10;58.80;;;;;;5060721;28;20049;-51
2021/04/14 03:41:30;;;;;;;6.67;5.97;;;10.10;58.70;;;;;;5037434;28;20033;-56
2021/04/14 03:43:56;;;;;;;6.17;5.63;;;10.10;58.70;;;;;;5049783;28;20054;-52
2021/04/14 03:46:24;;;;;;;7.37;5.90;;;10.10;58.40;;;;;;5046664;28;20037;-52
2021/04/14 03:48:50;;;;;;;6.87;5.73;;;10.20;58.10;;;;;;5049314;28;20043;-51
2021/04/14 03:51:16;;;;;;;7.63;6.83;;;10.20;57.90;;;;;;5050874;28;20057;-52
2021/04/14 03:53:43;;;;;;;6.13;5.53;;;10.00;58.10;;;;;;5061695;28;20041;-53
2021/04/14 03:56:14;;;;;;;6.57;5.93;;;10.00;58.20;;;;;;5063279;28;22997;-52
2021/04/14 03:58:43;;;;;;;8.38;5.85;;;10.10;58.10;;;;;;5048073;28;20550;-51
2021/04/14 04:01:13;;;;;;;7.37;6.60;;;10.00;58.20;;;;;;5053683;28;20375;-51
2021/04/14 04:03:40;;;;;;;7.37;6.60;;;10.00;58.20;;;;;;5054871;28;20072;-51
2021/04/14 04:06:06;;;;;;;6.93;6.23;;;9.90;58.20;;;;;;5033097;28;20116;-51
2021/04/14 04:08:32;;;;;;;7.03;6.20;;;10.10;58.30;;;;;;5061124;28;20083;-53
2021/04/14 04:10:58;;;;;;;8.00;6.20;;;10.10;57.80;;;;;;5030923;28;20102;-52
2021/04/14 04:13:23;;;;;;;7.50;6.70;;;10.10;57.90;;;;;;5052614;28;20033;-53
2021/04/14 04:15:49;;;;;;;6.73;6.13;;;10.00;57.80;;;;;;5065233;28;20032;-51
2021/04/14 04:18:15;;;;;;;7.00;6.33;;;10.00;57.70;;;;;;5057379;28;20671;-53
2021/04/14 04:20:41;;;;;;;8.63;5.53;;;10.00;57.80;;;;;;5044463;28;20045;-51
2021/04/14 04:23:08;;;;;;;8.57;6.00;;;10.00;57.80;;;;;;5051811;28;20033;-55
2021/04/14 04:25:34;;;;;;;7.90;6.67;;;10.00;57.40;;;;;;5051722;28;20041;-52
2021/04/14 04:28:01;;;;;;;7.57;6.73;;;10.00;57.10;;;;;;5057825;28;20086;-50
2021/04/14 04:30:28;;;;;;;9.20;7.00;;;10.10;57.70;;;;;;5062302;28;20046;-55
2021/04/14 04:32:54;;;;;;;8.23;6.83;;;10.00;57.50;;;;;;5059477;28;20183;-52
2021/04/14 04:35:20;;;;;;;8.53;7.10;;;10.00;57.80;;;;;;5058297;28;20029;-53
2021/04/14 04:37:46;;;;;;;7.40;6.60;;;9.90;57.70;;;;;;5056716;28;20040;-53
2021/04/14 04:40:13;;;;;;;7.70;6.93;;;10.00;57.40;;;;;;5053144;28;20055;-50
2021/04/14 04:42:39;;;;;;;8.07;6.67;;;9.90;57.60;;;;;;5051106;28;20045;-56
2021/04/14 04:45:08;;;;;;;9.07;7.10;;;10.00;57.60;;;;;;5047413;28;20037;-53
2021/04/14 04:47:34;;;;;;;7.33;6.63;;;10.00;57.30;;;;;;5059096;28;20197;-53
2021/04/14 04:50:00;;;;;;;8.67;6.67;;;10.00;57.10;;;;;;5064085;28;20120;-53
2021/04/14 04:52:26;;;;;;;9.60;7.17;;;10.00;57.20;;;;;;5046171;28;20079;-54
2021/04/14 04:54:51;;;;;;;7.50;6.37;;;10.00;56.80;;;;;;5065121;28;20359;-55
2021/04/14 04:57:17;;;;;;;9.10;6.90;;;10.00;56.30;;;;;;5048278;28;20041;-51
2021/04/14 04:59:42;;;;;;;7.73;6.53;;;9.90;56.30;;;;;;5055871;28;20082;-52
2021/04/14 05:02:08;;;;;;;7.03;6.13;;;10.00;56.80;;;;;;5052486;28;27306;-52
2021/04/14 05:04:34;;;;;;;7.43;6.50;;;9.90;56.00;;;;;;5063364;28;20059;-52
2021/04/14 05:06:59;;;;;;;6.73;6.00;;;9.90;56.20;;;;;;5048234;28;20080;-51
2021/04/14 05:09:25;;;;;;;7.37;6.60;;;9.90;56.00;;;;;;5045113;28;20144;-53
2021/04/14 05:11:51;;;;;;;7.90;6.30;;;10.00;55.80;;;;;;5049538;28;20053;-53
2021/04/14 05:14:16;;;;;;;7.43;6.23;;;10.00;56.00;;;;;;5056148;28;20041;-54
2021/04/14 05:16:42;;;;;;;8.80;7.17;;;10.00;55.90;;;;;;5047538;28;20045;-51
2021/04/14 05:19:08;;;;;;;7.07;6.17;;;10.00;55.80;;;;;;5043766;28;20036;-52
2021/04/14 05:21:37;;;;;;;9.30;7.20;;;9.90;55.60;;;;;;5047741;28;20029;-51
2021/04/14 05:24:03;;;;;;;8.20;6.67;;;10.00;55.20;;;;;;5058758;28;20071;-50
2021/04/14 05:26:29;;;;;;;8.47;6.27;;;9.90;55.40;;;;;;5038022;28;20057;-51
2021/04/14 05:28:54;;;;;;;6.97;5.70;;;9.90;55.40;;;;;;5051485;28;20045;-49
2021/04/14 05:31:20;;;;;;;7.60;6.17;;;9.90;55.30;;;;;;5057707;28;20049;-52
2021/04/14 05:33:46;;;;;;;9.83;6.33;;;10.00;55.50;;;;;;5049092;28;20456;-54
2021/04/14 05:36:12;;;;;;;7.50;6.03;;;10.00;55.30;;;;;;5056512;28;20037;-51
2021/04/14 05:38:38;;;;;;;11.73;6.00;;;10.00;54.90;;;;;;5050530;28;20041;-52
2021/04/14 05:41:04;;;;;;;8.73;7.20;;;10.10;54.60;;;;;;5053485;28;20103;-50
2021/04/14 05:43:35;;;;;;;9.57;6.20;;;10.00;54.60;;;;;;5051199;28;20509;-51
2021/04/14 05:46:05;;;;;;;8.33;5.93;;;9.90;54.80;;;;;;5052670;28;20087;-51
2021/04/14 05:48:31;;;;;;;8.93;7.53;;;10.00;54.70;;;;;;5052402;28;20040;-52
2021/04/14 05:51:04;;;;;;;12.93;8.00;;;10.10;54.30;;;;;;5038404;28;20394;-52
2021/04/14 05:53:33;;;;;;;6.13;5.30;;;10.00;54.20;;;;;;5056538;28;20032;-56
2021/04/14 05:56:00;;;;;;;8.20;6.27;;;10.00;53.80;;;;;;5065410;28;20044;-52
2021/04/14 05:58:27;;;;;;;8.90;6.30;;;10.00;53.70;;;;;;5062194;28;20071;-56
2021/04/14 06:00:53;;;;;;;8.90;6.00;;;10.10;54.00;;;;;;5063317;28;20044;-52
2021/04/14 06:03:18;;;;;;;10.13;5.33;;;10.10;53.90;;;;;;5043519;28;20101;-52
2021/04/14 06:05:44;;;;;;;5.00;4.50;;;10.20;53.00;;;;;;5046393;28;20037;-51
2021/04/14 06:08:10;;;;;;;5.60;4.60;;;10.20;53.10;;;;;;5045636;28;20061;-51
2021/04/14 06:10:35;;;;;;;6.73;5.27;;;10.20;53.10;;;;;;5041071;28;20053;-54
2021/04/14 06:13:01;;;;;;;7.77;5.57;;;10.20;52.90;;;;;;5048859;28;20040;-53
2021/04/14 06:15:32;;;;;;;6.97;5.27;;;10.20;52.90;;;;;;5058674;28;20044;-52
2021/04/14 06:17:58;;;;;;;6.13;5.00;;;10.30;52.70;;;;;;5061726;28;20048;-54
2021/04/14 06:20:25;;;;;;;6.70;5.70;;;10.30;52.80;;;;;;5057543;28;20120;-55
2021/04/14 06:22:52;;;;;;;7.50;5.00;;;10.30;53.00;;;;;;5051565;28;20119;-52
2021/04/14 06:25:19;;;;;;;11.33;5.00;;;10.30;52.80;;;;;;5049240;28;20440;-53
2021/04/14 06:28:03;;;;;;;6.93;5.20;;;10.30;52.00;;;;;;5053140;28;20048;-54
2021/04/14 06:30:29;;;;;;;8.50;5.33;;;10.30;51.90;;;;;;4991269;28;20037;-54
2021/04/14 06:32:54;;;;;;;6.40;4.63;;;10.30;52.40;;;;;;5048031;28;20037;-55
2021/04/14 06:35:23;;;;;;;5.53;4.60;;;10.40;52.00;;;;;;5056575;28;20466;-52
2021/04/14 06:37:49;;;;;;;7.57;5.10;;;10.40;51.90;;;;;;5051339;28;20037;-56
2021/04/14 06:43:16;;;;;;;5.43;4.90;;;10.50;51.40;;;;;;5051875;28;20500;-56
2021/04/14 06:45:56;;;;;;;7.20;4.90;;;10.40;50.70;;;;;;5022322;28;20041;-55
2021/04/14 06:48:35;;;;;;;6.80;4.20;;;10.50;51.10;;;;;;5051200;28;20033;-50
2021/04/14 06:51:28;;;;;;;4.70;4.07;;;10.50;50.60;;;;;;5046427;28;20081;-54
2021/04/14 06:53:53;;;;;;;4.90;4.40;;;10.50;49.60;;;;;;5047174;28;20079;-54
2021/04/14 06:56:21;;;;;;;7.17;5.03;;;10.50;50.00;;;;;;5040399;28;20072;-50
2021/04/14 06:58:49;;;;;;;6.27;4.10;;;10.50;49.60;;;;;;5052402;28;20478;-54
2021/04/14 07:01:22;;;;;;;7.78;5.38;;;10.60;48.90;;;;;;5055128;28;20085;-51
2021/04/14 07:04:08;;;;;;;6.57;4.40;;;10.50;49.50;;;;;;5066122;28;20127;-50
2021/04/14 07:06:38;;;;;;;8.43;4.87;;;10.70;48.80;;;;;;5035372;28;20051;-55
2021/04/14 07:09:26;;;;;;;6.50;4.80;;;10.70;49.20;;;;;;5048924;28;20128;-53
2021/04/14 07:11:52;;;;;;;5.60;4.63;;;10.70;48.60;;;;;;5061369;28;20559;-50
2021/04/14 07:14:19;;;;;;;5.50;5.00;;;10.90;49.20;;;;;;5055043;28;20041;-53
2021/04/14 07:17:02;;;;;;;7.93;5.13;;;11.00;49.00;;;;;;5058763;28;20443;-55
2021/04/14 07:19:37;;;;;;;9.57;6.00;;;10.80;49.00;;;;;;5018874;28;20029;-54
2021/04/14 07:22:19;;;;;;;5.72;5.07;;;11.00;48.90;;;;;;5045160;28;20040;-51
2021/04/14 07:24:56;;;;;;;7.57;4.90;;;11.00;49.80;;;;;;5044020;28;20445;-51
2021/04/14 07:27:34;;;;;;;6.73;4.87;;;11.10;47.60;;;;;;5050381;28;20356;-50
2021/04/14 07:30:03;;;;;;;5.63;4.80;;;11.20;48.40;;;;;;5055120;28;20035;-52
2021/04/14 07:32:59;;;;;;;7.63;5.40;;;11.20;48.20;;;;;;5051364;28;20033;-52
2021/04/14 07:35:36;;;;;;;8.03;5.10;;;11.20;47.90;;;;;;5029325;28;20535;-55
2021/04/14 07:38:19;;;;;;;6.27;5.07;;;11.20;46.70;;;;;;5060885;28;20047;-54
2021/04/14 07:41:01;;;;;;;9.23;5.40;;;11.20;45.60;;;;;;5064043;28;20045;-50
2021/04/14 07:43:27;;;;;;;7.67;5.30;;;11.20;46.60;;;;;;5032694;28;20402;-50
2021/04/14 07:45:58;;;;;;;7.25;4.82;;;11.10;47.40;;;;;;5069219;28;20036;-53
2021/04/14 07:48:28;;;;;;;8.07;5.75;;;11.20;46.80;;;;;;5064913;28;20033;-51
2021/04/14 07:50:58;;;;;;;9.07;5.55;;;11.30;46.90;;;;;;5068835;28;20580;-52
2021/04/14 07:53:32;;;;;;;6.80;4.93;;;11.40;46.60;;;;;;5056179;28;20135;-60
2021/04/14 07:56:22;;;;;;;6.55;5.00;;;11.40;45.30;;;;;;5054898;28;20048;-55
2021/04/14 07:59:06;;;;;;;15.65;6.57;;;11.40;45.80;;;;;;5051722;28;20097;-54
2021/04/14 08:01:34;;;;;;;7.97;5.57;;;11.40;44.90;;;;;;5004129;28;20055;-55
2021/04/14 08:04:25;;;;;;;9.18;5.57;;;11.40;45.80;;;;;;5038284;28;20070;-51
2021/04/14 08:06:53;;;;;;;8.45;4.28;;;11.50;44.20;;;;;;5055459;28;20087;-57
2021/04/14 08:09:22;;;;;;;4.55;3.88;;;11.50;45.00;;;;;;5057449;28;20040;-55
2021/04/14 08:11:50;;;;;;;7.93;4.50;;;11.50;44.10;;;;;;5059474;28;20563;-55
2021/04/14 08:14:29;;;;;;;4.28;3.88;;;11.60;43.60;;;;;;5063259;28;20103;-55
2021/04/14 08:16:55;;;;;;;6.70;4.18;;;11.60;43.60;;;;;;5064845;28;20044;-56
2021/04/14 08:19:27;;;;;;;5.53;3.75;;;11.70;43.80;;;;;;5046538;28;20491;-56
2021/04/14 08:21:55;;;;;;;4.65;3.45;;;11.80;42.70;;;;;;5050473;28;20459;-55
2021/04/14 08:24:32;;;;;;;5.20;3.78;;;11.70;41.70;;;;;;5057179;28;20035;-54
2021/04/14 08:27:01;;;;;;;8.30;4.90;;;11.70;42.50;;;;;;5061468;28;20067;-51
2021/04/14 08:29:27;;;;;;;6.05;4.47;;;11.80;43.30;;;;;;5049143;28;20060;-54
2021/04/14 08:31:53;;;;;;;5.85;3.95;;;11.90;42.90;;;;;;5040392;28;20064;-55
2021/04/14 08:34:32;;;;;;;4.45;3.75;;;11.90;41.90;;;;;;5048122;28;20135;-56
2021/04/14 08:37:13;;;;;;;11.32;5.00;;;12.00;41.10;;;;;;4991679;28;20029;-54
2021/04/14 08:39:52;;;;;;;5.15;4.65;;;12.00;41.30;;;;;;5047349;28;20123;-56
2021/04/14 08:42:24;;;;;;;6.18;4.50;;;12.10;42.50;;;;;;5045869;28;20041;-55
2021/04/14 08:44:57;;;;;;;7.15;4.80;;;12.10;41.60;;;;;;5046691;28;20126;-55
2021/04/14 08:47:27;;;;;;;5.60;3.67;;;12.20;42.20;;;;;;5053208;28;20052;-53
2021/04/14 08:50:34;;;;;;;5.35;4.80;;;12.30;42.30;;;;;;5061703;28;20058;-56
2021/04/14 08:53:05;;;;;;;5.15;4.03;;;12.30;40.30;;;;;;5020403;28;20041;-55
2021/04/14 08:55:31;;;;;;;5.05;4.22;;;12.30;41.20;;;;;;5053302;28;20445;-55
2021/04/14 08:57:58;;;;;;;5.40;4.65;;;12.50;41.60;;;;;;5053210;28;20029;-52
2021/04/14 09:00:25;;;;;;;7.43;4.63;;;12.60;41.70;;;;;;5029185;28;20045;-55
2021/04/14 09:02:57;;;;;;;4.30;3.90;;;12.60;41.20;;;;;;5020503;28;20036;-55
2021/04/14 09:05:24;;;;;;;4.75;4.20;;;12.60;41.10;;;;;;5052395;28;20094;-57
2021/04/14 09:07:50;;;;;;;4.32;3.92;;;12.60;40.60;;;;;;5047568;28;20444;-55
2021/04/14 09:10:41;;;;;;;5.90;4.55;;;12.70;40.20;;;;;;5053987;28;20498;-55
2021/04/14 09:13:11;;;;;;;5.25;4.75;;;12.80;39.80;;;;;;5009430;28;20060;-51
2021/04/14 09:15:58;;;;;;;4.80;4.40;;;12.80;40.10;;;;;;5057081;28;20498;-53
2021/04/14 09:18:29;;;;;;;5.15;3.80;;;12.90;38.40;;;;;;5046500;28;20110;-55
2021/04/14 09:21:13;;;;;;;4.85;4.10;;;12.90;39.10;;;;;;5042555;28;20406;-54
2021/04/14 09:23:58;;;;;;;4.70;4.30;;;13.00;38.60;;;;;;5040183;28;20044;-54
2021/04/14 09:26:33;;;;;;;6.00;4.13;;;13.00;37.90;;;;;;5064367;28;20072;-55
2021/04/14 09:28:59;;;;;;;5.65;4.60;;;13.10;38.70;;;;;;5051961;28;20175;-53
2021/04/14 09:31:39;;;;;;;6.95;4.40;;;13.20;39.10;;;;;;5042040;28;20040;-55
2021/04/14 09:34:16;;;;;;;5.80;5.20;;;13.20;37.30;;;;;;5035364;28;20069;-54
2021/04/14 09:36:46;;;;;;;5.65;4.78;;;13.30;37.40;;;;;;5041983;28;20046;-55
2021/04/14 09:39:36;;;;;;;5.43;4.93;;;13.30;38.20;;;;;;5042091;28;20127;-54
2021/04/14 09:42:34;;;;;;;4.95;4.40;;;13.30;34.70;;;;;;5022077;28;20048;-56
2021/04/14 09:45:12;;;;;;;5.97;5.38;;;13.50;35.40;;;;;;5013016;28;20057;-56
2021/04/14 09:47:38;;;;;;;5.32;4.82;;;13.30;36.40;;;;;;5056617;28;20063;-55
2021/04/14 09:50:21;;;;;;;5.63;5.03;;;13.40;36.50;;;;;;5052550;28;20064;-53
2021/04/14 09:52:53;;;;;;;5.90;5.00;;;13.50;35.50;;;;;;5044962;28;20045;-55
2021/04/14 09:55:35;;;;;;;6.53;4.82;;;13.60;36.10;;;;;;5037114;28;20021;-55
2021/04/14 09:58:19;;;;;;;7.70;5.40;;;13.60;34.80;;;;;;5023545;28;20048;-57
2021/04/14 10:00:50;;;;;;;5.72;5.22;;;13.70;35.60;;;;;;5045688;28;20505;-52
2021/04/14 10:03:32;;;;;;;5.65;5.15;;;13.80;35.70;;;;;;5047657;28;20126;-54
2021/04/14 10:06:09;;;;;;;5.72;5.07;;;14.10;34.10;;;;;;5013205;28;20443;-54
2021/04/14 10:08:37;;;;;;;6.05;5.15;;;14.30;33.60;;;;;;5030141;28;20561;-54
2021/04/14 10:11:03;;;;;;;5.30;4.70;;;14.50;33.10;;;;;;5049409;28;20479;-55
2021/04/14 10:13:32;;;;;;;5.65;4.28;;;14.60;32.00;;;;;;5041749;28;20041;-56
2021/04/14 10:15:58;;;;;;;6.97;4.10;;;14.60;31.80;;;;;;5041360;28;20064;-55
2021/04/14 10:18:30;;;;;;;5.25;4.38;;;14.70;30.30;;;;;;5045355;28;20052;-55
2021/04/14 10:21:17;;;;;;;6.35;4.65;;;14.60;29.90;;;;;;5054615;28;20090;-55
2021/04/14 10:23:43;;;;;;;4.63;4.13;;;14.70;29.90;;;;;;5059430;28;20037;-59
2021/04/14 10:26:11;;;;;;;7.47;5.18;;;14.80;29.70;;;;;;5040721;28;20152;-57
2021/04/14 10:28:41;;;;;;;9.65;5.82;;;14.90;28.60;;;;;;5054558;28;20405;-60
2021/04/14 10:31:10;;;;;;;6.65;5.88;;;15.20;28.00;;;;;;5046397;28;20041;-60
2021/04/14 10:33:38;;;;;;;6.18;4.70;;;15.00;27.20;;;;;;5064233;28;20131;-59
2021/04/14 10:36:24;;;;;;;4.78;4.05;;;15.20;27.30;;;;;;5059790;28;20076;-60
2021/04/14 10:38:50;;;;;;;5.45;4.47;;;15.20;26.40;;;;;;5062826;28;20076;-61
2021/04/14 10:41:32;;;;;;;6.25;4.18;;;15.50;26.90;;;;;;5052817;28;20079;-61
2021/04/14 10:43:58;;;;;;;4.95;4.43;;;15.60;25.00;;;;;;4992908;28;20497;-60
2021/04/14 10:46:31;;;;;;;6.80;5.13;;;15.70;26.50;;;;;;5034744;28;20132;-61
2021/04/14 10:49:03;;;;;;;4.88;4.35;;;15.80;26.70;;;;;;5034095;28;20033;-60
2021/04/14 10:51:44;;;;;;;6.22;4.65;;;15.80;26.70;;;;;;5043474;28;20108;-61
2021/04/14 10:54:12;;;;;;;6.93;4.85;;;15.80;26.30;;;;;;5046530;28;20040;-58
2021/04/14 10:56:38;;;;;;;5.25;4.75;;;15.40;25.80;;;;;;5039183;28;20040;-57
2021/04/14 10:59:09;;;;;;;5.75;4.75;;;15.60;27.30;;;;;;5044015;28;20045;-58
2021/04/14 11:01:42;;;;;;;5.80;5.22;;;15.80;27.60;;;;;;5034950;28;20163;-60
2021/04/14 11:04:26;;;;;;;5.53;4.93;;;15.80;27.50;;;;;;5043446;28;20504;-59
2021/04/14 11:06:57;;;;;;;5.43;4.75;;;15.90;27.40;;;;;;5046039;28;20037;-60
2021/04/14 11:09:23;;;;;;;6.43;5.07;;;15.70;26.50;;;;;;5050606;28;20041;-60
2021/04/14 11:11:50;;;;;;;6.18;4.40;;;15.70;26.30;;;;;;5044369;28;20059;-61
2021/04/14 11:14:18;;;;;;;8.93;4.90;;;15.70;26.40;;;;;;5060846;28;20033;-61
2021/04/14 11:16:46;;;;;;;6.90;5.03;;;16.00;27.10;;;;;;5051493;28;20051;-60
2021/04/14 11:19:14;;;;;;;6.55;4.90;;;16.20;26.70;;;;;;5044489;28;20553;-59
2021/04/14 11:21:41;;;;;;;6.70;5.57;;;16.30;26.70;;;;;;5036011;28;20529;-60
2021/04/14 11:24:14;;;;;;;7.35;5.20;;;16.60;27.00;;;;;;5058089;28;20541;-58
2021/04/14 11:26:52;;;;;;;5.07;4.57;;;16.70;26.90;;;;;;5049982;28;22444;-61
2021/04/14 11:29:27;;;;;;;5.65;4.55;;;16.80;26.40;;;;;;5043411;28;20029;-60
2021/04/14 11:31:54;;;;;;;5.07;4.57;;;16.90;25.90;;;;;;5026656;28;20052;-59
2021/04/14 11:34:28;;;;;;;5.82;4.47;;;16.80;25.70;;;;;;5048286;28;20056;-61
2021/04/14 11:37:02;;;;;;;6.20;5.15;;;17.00;24.70;;;;;;5037157;28;20036;-59
2021/04/14 11:39:49;;;;;;;6.28;4.50;;;17.10;25.50;;;;;;5044738;28;20040;-58
2021/04/14 11:42:17;;;;;;;5.20;4.68;;;17.10;25.10;;;;;;5042607;28;20307;-59
2021/04/14 11:44:50;;;;;;;5.93;5.10;;;17.80;25.50;;;;;;5052814;28;20040;-59
2021/04/14 11:47:34;;;;;;;5.28;4.78;;;18.40;24.70;;;;;;5055276;28;20051;-59
2021/04/14 11:50:28;;;;;;;5.13;4.25;;;24.20;19.60;;;;;;5034597;28;20354;-59
2021/04/14 11:52:59;;;;;;;6.75;5.47;;;27.80;17.40;;;;;;5055540;28;20067;-58
2021/04/14 11:55:36;;;;;;;5.43;4.93;;;30.10;15.70;;;;;;5046842;28;20044;-60
2021/04/14 11:58:04;;;;;;;7.45;4.78;;;31.70;14.60;;;;;;5023680;28;20072;-60
2021/04/14 12:00:50;;;;;;;7.50;5.47;;;33.00;14.10;;;;;;5045656;28;20033;-60
2021/04/14 12:03:18;;;;;;;5.38;4.75;;;30.70;12.00;;;;;;5042030;28;20036;-60
2021/04/14 12:05:45;;;;;;;5.13;4.63;;;29.30;12.90;;;;;;5063463;28;20109;-60
2021/04/14 12:08:11;;;;;;;8.40;4.88;;;27.50;14.60;;;;;;5059509;28;20033;-60
2021/04/14 12:10:38;;;;;;;5.95;5.28;;;27.30;15.20;;;;;;5063223;28;20490;-60
2021/04/14 12:13:03;;;;;;;6.90;5.47;;;27.90;14.90;;;;;;5049205;28;20383;-59
2021/04/14 12:15:29;;;;;;;5.50;5.00;;;27.60;14.20;;;;;;5034693;28;20052;-59
2021/04/14 12:17:56;;;;;;;7.88;4.78;;;26.50;14.90;;;;;;5050856;28;20505;-59
2021/04/14 12:20:23;;;;;;;5.82;5.32;;;26.40;15.60;;;;;;5055892;28;20051;-58
2021/04/14 12:22:49;;;;;;;6.55;5.28;;;25.50;15.50;;;;;;5042920;28;20044;-58
2021/04/14 12:25:15;;;;;;;8.25;6.10;;;25.60;16.30;;;;;;5052104;28;20115;-60
2021/04/14 12:27:41;;;;;;;5.97;5.38;;;25.20;17.20;;;;;;5045107;28;20144;-59
2021/04/14 12:30:08;;;;;;;6.38;5.72;;;24.50;16.50;;;;;;5040265;28;20045;-60
2021/04/14 12:32:34;;;;;;;6.40;5.90;;;24.40;17.30;;;;;;5051021;28;20068;-60
2021/04/14 12:34:59;;;;;;;6.25;5.65;;;24.60;17.10;;;;;;5048839;28;20060;-59
2021/04/14 12:37:25;;;;;;;5.43;4.97;;;25.70;16.90;;;;;;5049798;28;20959;-59
2021/04/14 12:39:51;;;;;;;6.03;5.55;;;25.90;16.20;;;;;;5044345;28;20041;-59
2021/04/14 12:42:17;;;;;;;7.43;6.28;;;25.20;16.60;;;;;;5061281;28;20032;-59
2021/04/14 12:44:42;;;;;;;8.63;5.63;;;23.70;17.00;;;;;;5049100;28;20147;-59
2021/04/14 12:47:13;;;;;;;6.03;4.72;;;22.80;18.50;;;;;;5054426;28;20031;-60
2021/04/14 12:49:42;;;;;;;6.20;5.60;;;22.30;18.30;;;;;;5040735;28;20048;-60
2021/04/14 12:52:18;;;;;;;6.40;5.80;;;21.30;19.30;;;;;;5041678;28;20045;-60
2021/04/14 12:54:43;;;;;;;5.88;5.45;;;21.10;19.70;;;;;;5065212;28;20036;-60
2021/04/14 12:57:17;;;;;;;6.53;5.60;;;23.60;37.20;;;;;;5048002;28;20092;-60
2021/04/14 12:59:53;;;;;;;6.28;5.70;;;21.80;18.20;;;;;;5044820;28;20056;-60
2021/04/14 13:02:27;;;;;;;5.90;5.35;;;21.40;18.90;;;;;;5042547;28;20079;-60
2021/04/14 13:05:20;;;;;;;6.78;5.70;;;20.70;19.70;;;;;;5042599;28;20394;-59